createdAt,value
2022-08-17T00:33:15.478Z,100107.13
2022-08-17T00:35:34.076Z,100122.09
2022-08-17T00:38:00.709Z,100113.34
2022-08-17T00:40:27.206Z,100109.38
2022-08-17T00:43:14.973Z,100109.38
2022-08-17T00:45:42.474Z,100109.38
2022-08-17T00:48:26.158Z,100112.56
2022-08-17T00:51:01.574Z,100118.03
2022-08-17T00:53:30.883Z,100112.78
2022-08-17T00:56:01.783Z,100119.66
2022-08-17T00:58:35.800Z,100112.66
2022-08-17T01:01:04.552Z,100113.25
2022-08-17T01:03:31.466Z,100117.31
2022-08-17T01:06:01.470Z,100116.84
2022-08-17T01:08:30.583Z,100116.66
2022-08-17T01:11:02.218Z,100122.03
2022-08-17T01:13:40.364Z,100121.22
2022-08-17T01:16:16.046Z,100122.34
2022-08-17T01:18:45.396Z,100125.34
2022-08-17T01:21:22.345Z,100120.06
2022-08-17T01:23:49.063Z,100125.31
2022-08-17T01:26:16.263Z,100134.22
2022-08-17T01:28:54.222Z,100133.56
2022-08-17T01:31:24.186Z,100144.72
2022-08-17T01:33:50.974Z,100133.91
2022-08-17T01:36:18.124Z,100140.53
2022-08-17T01:38:44.748Z,100142.97
2022-08-17T01:41:15.532Z,100131.81
2022-08-17T01:43:47.816Z,100136.41
2022-08-17T01:46:18.672Z,100140.50
2022-08-17T01:48:47.505Z,100137.19
2022-08-17T01:51:15.804Z,100141.16
2022-08-17T01:53:47.563Z,100144.25
2022-08-17T01:56:18.135Z,100147.22
2022-08-17T01:58:45.674Z,100147.75
2022-08-17T02:01:14.758Z,100147.47
2022-08-17T02:03:42.419Z,100148.56
2022-08-17T02:06:27.484Z,100151.25
2022-08-17T02:09:01.598Z,100161.03
2022-08-17T02:11:28.882Z,100155.22
2022-08-17T02:14:01.024Z,100159.69
2022-08-17T02:16:29.599Z,100160.72
2022-08-17T02:19:08.044Z,100167.47
2022-08-17T02:21:36.404Z,100175.84
2022-08-17T02:24:04.474Z,100171.56
2022-08-17T02:26:31.177Z,100179.03
2022-08-17T02:28:57.735Z,100194.75
2022-08-17T02:31:24.307Z,100186.00
2022-08-17T02:33:56.575Z,100192.56
2022-08-17T02:36:27.570Z,100181.41
2022-08-17T02:38:54.173Z,100185.41
2022-08-17T02:41:20.720Z,100188.31
2022-08-17T02:43:47.276Z,100188.41
2022-08-17T02:46:13.822Z,100188.63
2022-08-17T02:48:40.335Z,100195.25
2022-08-17T02:51:06.994Z,100184.41
2022-08-17T02:53:35.815Z,100194.00
2022-08-17T02:56:03.838Z,100186.50
2022-08-17T02:58:35.350Z,100185.81
2022-08-17T03:01:06.340Z,100199.84
2022-08-17T03:03:33.992Z,100193.88
2022-08-17T03:06:01.238Z,100195.88
2022-08-17T03:08:28.214Z,100198.34
2022-08-17T03:10:54.723Z,100188.50
2022-08-17T03:13:21.677Z,100194.66
2022-08-17T03:15:49.255Z,100194.47
2022-08-17T03:18:24.860Z,100195.88
2022-08-17T03:20:58.523Z,100203.34
2022-08-17T03:23:26.677Z,100195.38
2022-08-17T03:25:55.587Z,100204.63
2022-08-17T03:28:23.289Z,100204.44
2022-08-17T03:30:51.207Z,100198.03
2022-08-17T03:33:19.180Z,100194.06
2022-08-17T03:35:46.126Z,100199.66
2022-08-17T03:38:15.367Z,100209.44
2022-08-17T03:40:58.504Z,100205.19
2022-08-17T03:43:29.745Z,100208.63
2022-08-17T03:46:28.452Z,100207.94
2022-08-17T03:49:24.051Z,100208.50
2022-08-17T03:52:09.766Z,100211.28
2022-08-17T03:54:55.193Z,100214.53
2022-08-17T03:57:21.783Z,100211.78
2022-08-17T03:59:48.715Z,100219.25
2022-08-17T04:02:34.531Z,100229.38
2022-08-17T04:05:01.435Z,100234.03
2022-08-17T04:07:30.375Z,100221.31
2022-08-17T04:09:58.062Z,100227.03
2022-08-17T04:12:25.967Z,100228.56
2022-08-17T04:14:54.744Z,100235.25
2022-08-17T04:17:24.408Z,100236.84
2022-08-17T04:19:51.545Z,100229.47
2022-08-17T04:22:30.996Z,100244.91
2022-08-17T04:25:08.131Z,100245.19
2022-08-17T04:27:34.849Z,100242.16
2022-08-17T04:30:02.097Z,100249.97
2022-08-17T04:33:05.406Z,100247.75
2022-08-17T04:35:24.676Z,100257.25
2022-08-17T04:37:51.750Z,100258.63
2022-08-17T04:40:38.638Z,100264.41
2022-08-17T04:43:11.819Z,100262.34
2022-08-17T04:45:55.507Z,100262.34
2022-08-17T04:48:36.296Z,100262.63
2022-08-17T04:51:38.264Z,100265.09
2022-08-17T04:54:21.899Z,100268.47
2022-08-17T04:56:48.552Z,100261.50
2022-08-17T04:59:21.159Z,100274.41
2022-08-17T05:01:50.628Z,100267.56
2022-08-17T05:04:33.845Z,100272.38
2022-08-17T05:07:02.121Z,100265.31
2022-08-17T05:09:29.084Z,100277.38
2022-08-17T05:11:56.176Z,100280.63
2022-08-17T05:14:33.025Z,100279.09
2022-08-17T05:17:01.116Z,100285.06
2022-08-17T05:19:28.623Z,100281.00
2022-08-17T05:21:55.213Z,100287.06
2022-08-17T05:24:42.543Z,100284.31
2022-08-17T05:27:08.295Z,100283.69
2022-08-17T05:29:35.407Z,100289.50
2022-08-17T05:32:39.173Z,100285.38
2022-08-17T05:35:00.396Z,100290.59
2022-08-17T05:37:27.547Z,100287.75
2022-08-17T05:39:54.394Z,100283.91
2022-08-17T05:42:21.722Z,100291.75
2022-08-17T05:44:48.549Z,100291.09
2022-08-17T05:47:15.135Z,100289.69
2022-08-17T05:49:41.673Z,100291.75
2022-08-17T05:52:20.991Z,100299.69
2022-08-17T05:54:53.146Z,100297.53
2022-08-17T05:57:39.488Z,100306.50
2022-08-17T06:00:20.303Z,100312.03
2022-08-17T06:03:00.458Z,100301.16
2022-08-17T06:05:26.955Z,100315.59
2022-08-17T06:08:09.934Z,100312.66
2022-08-17T06:10:57.373Z,100304.63
2022-08-17T06:14:01.547Z,100312.59
2022-08-17T06:16:35.476Z,100312.50
2022-08-17T06:19:45.228Z,100312.44
2022-08-17T06:22:16.712Z,100315.56
2022-08-17T06:24:43.258Z,100322.22
2022-08-17T06:27:22.459Z,100321.75
2022-08-17T06:30:00.563Z,100316.81
2022-08-17T06:32:27.404Z,100322.97
2022-08-17T06:34:54.303Z,100330.03
2022-08-17T06:37:42.288Z,100329.94
2022-08-17T06:40:29.991Z,100342.88
2022-08-17T06:43:05.984Z,100344.38
2022-08-17T06:45:49.385Z,100350.16
2022-08-17T06:48:24.788Z,100358.13
2022-08-17T06:50:55.949Z,100359.56
2022-08-17T06:53:41.138Z,100352.31
2022-08-17T06:56:13.608Z,100358.47
2022-08-17T06:58:43.365Z,100363.84
2022-08-17T07:01:15.063Z,100362.56
2022-08-17T07:03:46.342Z,100368.91
2022-08-17T07:06:18.374Z,100370.53
2022-08-17T07:08:53.198Z,100372.56
2022-08-17T07:11:29.111Z,100380.75
2022-08-17T07:14:04.806Z,100385.59
2022-08-17T07:16:39.657Z,100386.22
2022-08-17T07:19:07.450Z,100390.63
2022-08-17T07:22:01.839Z,100390.78
2022-08-17T07:24:43.323Z,100392.75
2022-08-17T07:27:18.190Z,100397.78
2022-08-17T07:29:58.389Z,100387.41
2022-08-17T07:32:32.269Z,100394.59
2022-08-17T07:35:11.670Z,100395.97
2022-08-17T07:37:50.926Z,100399.25
2022-08-17T07:40:27.136Z,100403.06
2022-08-17T07:43:22.285Z,100407.53
2022-08-17T07:46:23.794Z,100412.63
2022-08-17T07:48:55.266Z,100418.81
2022-08-17T07:51:25.180Z,100430.47
2022-08-17T07:53:53.763Z,100431.75
2022-08-17T07:56:55.474Z,100438.66
2022-08-17T07:59:33.462Z,100430.69
2022-08-17T08:02:05.228Z,100437.84
2022-08-17T08:07:27.223Z,100438.44
2022-08-17T08:10:04.925Z,100441.13
2022-08-17T08:12:37.444Z,100442.69
2022-08-17T08:15:10.161Z,100439.47
2022-08-17T08:17:52.820Z,100442.88
2022-08-17T08:20:52.028Z,100438.66
2022-08-17T08:23:57.444Z,100444.94
2022-08-17T08:26:43.372Z,100437.03
2022-08-17T08:29:33.018Z,100442.44
2022-08-17T08:32:20.496Z,100439.34
2022-08-17T08:35:08.537Z,100439.34
2022-08-17T08:37:54.001Z,100448.72
2022-08-17T08:40:48.594Z,100445.44
2022-08-17T08:43:38.799Z,100450.97
2022-08-17T08:46:20.730Z,100450.84
2022-08-17T08:49:12.115Z,100459.19
2022-08-17T08:51:48.254Z,100461.09
2022-08-17T08:54:26.681Z,100461.38
2022-08-17T08:57:23.166Z,100458.22
2022-08-17T09:00:00.295Z,100471.38
2022-08-17T09:02:54.893Z,100474.91
2022-08-17T09:05:49.407Z,100475.22
2022-08-17T09:08:50.081Z,100473.75
2022-08-17T09:11:36.525Z,100478.88
2022-08-17T09:14:32.751Z,100480.44
2022-08-17T09:17:29.112Z,100475.16
2022-08-17T09:20:04.242Z,100475.13
2022-08-17T09:22:39.198Z,100469.09
2022-08-17T09:25:28.576Z,100462.81
2022-08-17T09:28:05.822Z,100467.47
2022-08-17T09:30:41.128Z,100461.88
2022-08-17T09:33:11.590Z,100454.41
2022-08-17T09:35:52.646Z,100449.66
2022-08-17T09:38:38.074Z,100456.88
2022-08-17T09:41:13.675Z,100457.22
2022-08-17T09:44:09.608Z,100463.16
2022-08-17T09:47:07.275Z,100460.91
2022-08-17T09:49:42.860Z,100456.44
2022-08-17T09:52:23.273Z,100466.41
2022-08-17T09:54:52.362Z,100462.91
2022-08-17T09:57:48.468Z,100459.13
2022-08-17T10:00:27.657Z,100461.94
2022-08-17T10:02:57.277Z,100467.44
2022-08-17T10:05:41.328Z,100459.63
2022-08-17T10:08:46.043Z,100456.84
2022-08-17T10:11:56.160Z,100466.69
2022-08-17T10:14:44.416Z,100477.72
2022-08-17T10:17:33.310Z,100485.03
2022-08-17T10:20:33.967Z,100481.25
2022-08-17T10:23:26.894Z,100485.03
2022-08-17T10:26:14.236Z,100482.00
2022-08-17T10:28:50.462Z,100485.06
2022-08-17T10:31:40.249Z,100479.44
2022-08-17T10:34:27.010Z,100475.56
2022-08-17T10:37:30.462Z,100477.75
2022-08-17T10:40:15.158Z,100483.53
2022-08-17T10:42:54.996Z,100472.84
2022-08-17T10:45:29.483Z,100470.78
2022-08-17T10:48:21.157Z,100466.16
2022-08-17T10:50:49.713Z,100474.19
2022-08-17T10:53:49.597Z,100474.88
2022-08-17T10:56:18.720Z,100475.78
2022-08-17T10:58:49.613Z,100471.81
2022-08-17T11:01:17.490Z,100473.25
2022-08-17T11:03:54.837Z,100470.94
2022-08-17T11:06:35.098Z,100474.97
2022-08-17T11:09:35.000Z,100476.19
2022-08-17T11:12:37.694Z,100479.22
2022-08-17T11:15:19.670Z,100473.88
2022-08-17T11:18:32.756Z,100470.50
2022-08-17T11:21:02.145Z,100475.28
2022-08-17T11:23:51.258Z,100479.09
2022-08-17T11:26:26.249Z,100480.38
2022-08-17T11:28:59.555Z,100483.84
2022-08-17T11:31:38.836Z,100485.91
2022-08-17T11:34:06.340Z,100488.28
2022-08-17T11:37:01.907Z,100489.16
2022-08-17T11:39:31.225Z,100484.50
2022-08-17T11:42:05.568Z,100492.97
2022-08-17T11:44:52.512Z,100490.31
2022-08-17T11:48:29.231Z,100487.94
2022-08-17T11:51:28.687Z,100496.00
2022-08-17T11:54:30.559Z,100483.50
2022-08-17T11:56:51.797Z,100489.69
2022-08-17T11:59:33.323Z,100498.13
2022-08-17T12:02:31.525Z,100498.00
2022-08-17T12:05:02.744Z,100490.78
2022-08-17T12:07:33.066Z,100497.34
2022-08-17T12:10:01.075Z,100504.66
2022-08-17T12:12:33.413Z,100500.66
2022-08-17T12:15:16.697Z,100486.09
2022-08-17T12:17:53.039Z,100491.38
2022-08-17T12:20:21.427Z,100492.47
2022-08-17T12:22:54.895Z,100491.97
2022-08-17T12:25:33.082Z,100494.13
2022-08-17T12:28:06.570Z,100494.16
2022-08-17T12:30:35.429Z,100495.44
2022-08-17T12:33:02.506Z,100494.78
2022-08-17T12:35:35.259Z,100490.31
2022-08-17T12:38:04.471Z,100487.78
2022-08-17T12:40:33.384Z,100486.81
2022-08-17T12:43:06.778Z,100485.31
2022-08-17T12:45:34.942Z,100486.94
2022-08-17T12:48:11.107Z,100493.91
2022-08-17T12:50:40.387Z,100495.69
2022-08-17T12:53:16.415Z,100495.34
2022-08-17T12:55:44.417Z,100492.81
2022-08-17T12:58:15.131Z,100489.84
2022-08-17T13:00:49.806Z,100489.06
2022-08-17T13:03:20.155Z,100489.81
2022-08-17T13:05:52.657Z,100485.06
2022-08-17T13:08:41.227Z,100497.25
2022-08-17T13:11:18.291Z,100498.34
2022-08-17T13:13:50.795Z,100490.25
2022-08-17T13:16:30.717Z,100485.19
2022-08-17T13:19:09.124Z,100486.94
2022-08-17T13:21:38.044Z,100478.53
2022-08-17T13:24:10.604Z,100484.25
2022-08-17T13:26:44.360Z,100477.22
2022-08-17T13:29:26.955Z,100480.91
2022-08-17T13:32:13.224Z,100471.00
2022-08-17T13:35:15.445Z,100472.25
2022-08-17T13:37:59.295Z,100478.84
2022-08-17T13:40:53.179Z,100469.97
2022-08-17T13:43:45.034Z,100473.13
2022-08-17T13:46:25.165Z,100472.50
2022-08-17T13:48:59.147Z,100465.16
2022-08-17T13:51:29.729Z,100468.81
2022-08-17T13:53:59.483Z,100468.44
2022-08-17T13:56:46.739Z,100460.44
2022-08-17T13:59:52.577Z,100458.25
2022-08-17T14:02:13.474Z,100455.94
2022-08-17T14:04:42.919Z,100454.53
2022-08-17T14:07:11.443Z,100460.09
2022-08-17T14:09:41.581Z,100441.22
2022-08-17T14:12:16.243Z,100445.44
2022-08-17T14:14:44.695Z,100440.25
2022-08-17T14:17:12.308Z,100434.97
2022-08-17T14:19:39.261Z,100441.28
2022-08-17T14:22:11.583Z,100448.00
2022-08-17T14:24:44.640Z,100448.00
2022-08-17T14:27:12.028Z,100446.28
2022-08-17T14:29:41.070Z,100449.97
2022-08-17T14:32:28.967Z,100457.03
2022-08-17T14:34:57.615Z,100456.31
2022-08-17T14:37:26.346Z,100458.72
2022-08-17T14:40:02.128Z,100458.84
2022-08-17T14:42:32.631Z,100458.25
2022-08-17T14:45:00.008Z,100456.47
2022-08-17T14:47:29.617Z,100452.66
2022-08-17T14:49:56.121Z,100453.19
2022-08-17T14:52:22.857Z,100461.81
2022-08-17T14:54:51.382Z,100459.72
2022-08-17T14:57:34.168Z,100464.81
2022-08-17T15:00:02.092Z,100465.16
2022-08-17T15:02:30.691Z,100464.53
2022-08-17T15:05:05.726Z,100469.75
2022-08-17T15:07:32.365Z,100465.16
2022-08-17T15:10:02.700Z,100463.41
2022-08-17T15:12:34.111Z,100463.00
2022-08-17T15:15:04.839Z,100470.72
2022-08-17T15:17:43.971Z,100464.34
2022-08-17T15:20:21.075Z,100459.09
2022-08-17T15:22:55.402Z,100462.25
2022-08-17T15:25:23.177Z,100467.19
2022-08-17T15:27:50.141Z,100465.38
2022-08-17T15:30:17.408Z,100471.56
2022-08-17T15:32:50.953Z,100477.31
2022-08-17T15:35:22.078Z,100476.59
2022-08-17T15:38:06.295Z,100472.69
2022-08-17T15:40:39.972Z,100464.69
2022-08-17T15:43:13.879Z,100464.22
2022-08-17T15:45:40.550Z,100465.66
2022-08-17T15:48:07.982Z,100474.59
2022-08-17T15:50:34.938Z,100467.00
2022-08-17T15:53:02.156Z,100465.88
2022-08-17T15:55:30.586Z,100472.41
2022-08-17T15:57:57.171Z,100472.75
2022-08-17T16:00:24.201Z,100474.22
2022-08-17T16:03:45.399Z,100479.84
2022-08-17T16:05:37.867Z,100477.28
2022-08-17T16:08:07.442Z,100481.44
2022-08-17T16:10:34.739Z,100478.19
2022-08-17T16:13:03.111Z,100487.53
2022-08-17T16:15:31.254Z,100475.13
2022-08-17T16:17:57.805Z,100476.13
2022-08-17T16:20:24.327Z,100473.59
2022-08-17T16:22:51.312Z,100475.47
2022-08-17T16:25:22.158Z,100478.69
2022-08-17T16:27:53.392Z,100480.63
2022-08-17T16:30:22.766Z,100482.00
2022-08-17T16:32:51.707Z,100486.47
2022-08-17T16:35:20.497Z,100482.97
2022-08-17T16:37:47.681Z,100489.13
2022-08-17T16:40:16.146Z,100472.00
2022-08-17T16:42:43.367Z,100476.34
2022-08-17T16:45:13.701Z,100482.19
2022-08-17T16:47:41.869Z,100483.94
2022-08-17T16:50:11.774Z,100489.50
2022-08-17T16:52:39.363Z,100491.38
2022-08-17T16:55:07.892Z,100497.09
2022-08-17T16:57:35.810Z,100496.63
2022-08-17T17:00:02.476Z,100497.25
2022-08-17T17:02:37.943Z,100490.13
2022-08-17T17:05:17.587Z,100484.81
2022-08-17T17:08:03.763Z,100482.03
2022-08-17T17:10:57.918Z,100474.06
2022-08-17T17:13:30.600Z,100478.69
2022-08-17T17:16:26.298Z,100484.88
2022-08-17T17:19:08.092Z,100479.63
2022-08-17T17:21:43.370Z,100476.31
2022-08-17T17:24:26.131Z,100473.75
2022-08-17T17:27:15.244Z,100487.44
2022-08-17T17:29:58.179Z,100483.63
2022-08-17T17:32:42.724Z,100482.97
2022-08-17T17:35:16.759Z,100480.31
2022-08-17T17:37:46.008Z,100494.16
2022-08-17T17:40:20.540Z,100490.16
2022-08-17T17:42:49.008Z,100490.81
2022-08-17T17:45:25.995Z,100485.69
2022-08-17T17:47:53.261Z,100486.44
2022-08-17T17:50:23.927Z,100488.75
2022-08-17T17:52:59.270Z,100485.53
2022-08-17T17:55:37.702Z,100497.41
2022-08-17T17:58:19.670Z,100496.94
2022-08-17T18:01:13.342Z,100494.69
2022-08-17T18:04:03.377Z,100498.50
2022-08-17T18:07:22.957Z,100498.00
2022-08-17T18:10:01.398Z,100509.72
2022-08-17T18:12:43.181Z,100494.56
2022-08-17T18:15:25.161Z,100500.50
2022-08-17T18:18:17.191Z,100495.69
2022-08-17T18:20:57.603Z,100499.38
2022-08-17T18:23:28.165Z,100497.66
2022-08-17T18:25:56.151Z,100496.94
2022-08-17T18:28:27.779Z,100497.06
2022-08-17T18:31:32.785Z,100496.16
2022-08-17T18:34:43.716Z,100495.28
2022-08-17T18:37:09.438Z,100504.16
2022-08-17T18:39:38.293Z,100505.81
2022-08-17T18:42:22.306Z,100508.53
2022-08-17T18:44:52.991Z,100510.47
2022-08-17T18:47:27.991Z,100511.16
2022-08-17T18:50:15.307Z,100515.97
2022-08-17T18:52:41.960Z,100515.69
2022-08-17T18:55:12.330Z,100510.88
2022-08-17T18:57:45.637Z,100518.47
2022-08-17T19:00:36.156Z,100520.56
2022-08-17T19:03:24.965Z,100525.16
2022-08-17T19:05:57.428Z,100528.91
2022-08-17T19:08:30.094Z,100531.41
2022-08-17T19:11:02.617Z,100527.81
2022-08-17T19:13:37.426Z,100534.59
2022-08-17T19:16:27.398Z,100531.75
2022-08-17T19:18:59.562Z,100536.94
2022-08-17T19:21:40.409Z,100536.34
2022-08-17T19:24:19.456Z,100541.22
2022-08-17T19:26:58.921Z,100547.22
2022-08-17T19:29:36.559Z,100542.25
2022-08-17T19:32:06.544Z,100554.03
2022-08-17T19:34:36.386Z,100553.44
2022-08-17T19:37:07.558Z,100561.25
2022-08-17T19:39:55.142Z,100555.84
2022-08-17T19:42:31.130Z,100558.34
2022-08-17T19:45:11.778Z,100557.03
2022-08-17T19:48:00.524Z,100557.94
2022-08-17T19:50:39.041Z,100554.84
2022-08-17T19:53:19.210Z,100563.94
2022-08-17T19:56:08.332Z,100560.56
2022-08-17T19:58:53.698Z,100562.16
2022-08-17T20:01:34.420Z,100560.63
2022-08-17T20:04:18.782Z,100560.91
2022-08-17T20:06:49.388Z,100557.88
2022-08-17T20:09:21.446Z,100559.84
2022-08-17T20:11:56.927Z,100559.91
2022-08-17T20:14:58.442Z,100566.69
2022-08-17T20:17:30.262Z,100559.19
2022-08-17T20:20:02.548Z,100565.31
2022-08-17T20:22:49.581Z,100558.81
2022-08-17T20:25:30.566Z,100557.94
2022-08-17T20:28:06.207Z,100553.81
2022-08-17T20:30:41.042Z,100548.81
2022-08-17T20:33:24.478Z,100544.56
2022-08-17T20:36:02.453Z,100546.03
2022-08-17T20:38:44.444Z,100541.03
2022-08-17T20:41:23.034Z,100542.44
2022-08-17T20:43:55.300Z,100540.63
2022-08-17T20:46:37.415Z,100545.13
2022-08-17T20:49:27.105Z,100529.44
2022-08-17T20:52:02.548Z,100538.63
2022-08-17T20:54:48.023Z,100532.44
2022-08-17T20:57:32.990Z,100544.13
2022-08-17T21:00:19.125Z,100537.84
2022-08-17T21:02:49.562Z,100535.34
2022-08-17T21:05:37.313Z,100532.66
2022-08-17T21:08:17.044Z,100530.66
2022-08-17T21:10:45.544Z,100523.25
2022-08-17T21:13:15.600Z,100533.75
2022-08-17T21:15:42.366Z,100527.47
2022-08-17T21:18:18.922Z,100530.44
2022-08-17T21:21:14.084Z,100530.75
2022-08-17T21:24:02.072Z,100519.03
2022-08-17T21:27:05.998Z,100522.84
2022-08-17T21:29:33.947Z,100516.34
2022-08-17T21:32:06.927Z,100522.31
2022-08-17T21:34:44.022Z,100513.91
2022-08-17T21:37:23.360Z,100520.97
2022-08-17T21:40:13.166Z,100523.22
2022-08-17T21:42:47.749Z,100521.63
2022-08-17T21:45:28.934Z,100515.00
2022-08-17T21:48:11.555Z,100518.34
2022-08-17T21:50:41.518Z,100522.63
2022-08-17T21:53:12.165Z,100538.34
2022-08-17T21:55:39.100Z,100545.84
2022-08-17T21:58:27.040Z,100555.81
2022-08-17T22:01:21.013Z,100568.44
2022-08-17T22:03:56.550Z,100572.88
2022-08-17T22:06:29.874Z,100574.31
2022-08-17T22:09:10.603Z,100561.75
2022-08-17T22:11:54.647Z,100570.25
2022-08-17T22:14:51.613Z,100574.69
2022-08-17T22:17:26.376Z,100575.84
2022-08-17T22:20:01.538Z,100570.53
2022-08-17T22:22:30.810Z,100573.31
2022-08-17T22:25:06.769Z,100571.97
2022-08-17T22:27:48.943Z,100569.19
2022-08-17T22:30:25.165Z,100562.31
2022-08-17T22:32:52.061Z,100559.81
2022-08-17T22:35:18.515Z,100563.00
2022-08-17T22:37:45.579Z,100567.69
2022-08-17T22:40:25.294Z,100562.44
2022-08-17T22:42:52.439Z,100545.34
2022-08-17T22:45:19.254Z,100549.47
2022-08-17T22:47:48.873Z,100547.13
2022-08-17T22:50:27.863Z,100550.03
2022-08-17T22:53:18.998Z,100551.06
2022-08-17T22:56:10.071Z,100558.25
2022-08-17T22:59:07.545Z,100562.72
2022-08-17T23:01:35.467Z,100560.03
2022-08-17T23:04:04.157Z,100563.06
2022-08-17T23:06:35.176Z,100567.41
2022-08-17T23:09:04.391Z,100550.25
2022-08-17T23:11:47.764Z,100548.22
2022-08-17T23:14:19.258Z,100543.72
2022-08-17T23:16:46.757Z,100554.47
2022-08-17T23:19:16.645Z,100540.88
2022-08-17T23:21:44.898Z,100550.03
2022-08-17T23:24:17.329Z,100546.94
2022-08-17T23:26:43.900Z,100554.19
2022-08-17T23:29:10.675Z,100549.66
2022-08-17T23:31:39.051Z,100555.63
2022-08-17T23:34:09.331Z,100551.06
2022-08-17T23:36:36.379Z,100553.97
2022-08-17T23:39:04.599Z,100549.09
2022-08-17T23:41:36.366Z,100547.75
2022-08-17T23:44:04.925Z,100545.06
2022-08-17T23:46:31.427Z,100552.69
2022-08-17T23:48:58.111Z,100544.59
2022-08-17T23:51:29.096Z,100545.31
2022-08-17T23:54:05.779Z,100542.22
2022-08-17T23:56:41.109Z,100546.56
2022-08-17T23:59:07.618Z,100545.25
